sensor_id;sensor_type;location;lat;lon;timestamp;pressure;altitude;pressure_sealevel;temperature;humidity
68889;BME280;55930;47.412;8.790;2023-03-14T00:01:21;93439.16;;;7.79;100.00
68889;BME280;55930;47.412;8.790;2023-03-14T00:04:41;93444.34;;;7.68;100.00
68889;BME280;55930;47.412;8.790;2023-03-14T00:08:04;93451.38;;;7.77;100.00
68889;BME280;55930;47.412;8.790;2023-03-14T00:11:24;93451.53;;;7.67;100.00
68889;BME280;55930;47.412;8.790;2023-03-14T00:14:45;93453.69;;;7.69;100.00
68889;BME280;55930;47.412;8.790;2023-03-14T00:18:07;93457.75;;;7.64;100.00
68889;BME280;55930;47.412;8.790;2023-03-14T00:21:28;93468.34;;;7.70;100.00
68889;BME280;55930;47.412;8.790;2023-03-14T00:24:50;93474.03;;;7.63;100.00
68889;BME280;55930;47.412;8.790;2023-03-14T00:28:11;93466.19;;;7.68;100.00
68889;BME280;55930;47.412;8.790;2023-03-14T00:31:31;93442.53;;;7.54;100.00
68889;BME280;55930;47.412;8.790;2023-03-14T00:34:52;93415.63;;;7.50;100.00
68889;BME280;55930;47.412;8.790;2023-03-14T00:38:12;93425.28;;;7.58;100.00
68889;BME280;55930;47.412;8.790;2023-03-14T00:41:33;93409.78;;;7.40;100.00
68889;BME280;55930;47.412;8.790;2023-03-14T00:44:55;93381.69;;;7.37;100.00
68889;BME280;55930;47.412;8.790;2023-03-14T00:48:17;93332.97;;;7.33;100.00
68889;BME280;55930;47.412;8.790;2023-03-14T00:51:38;93297.56;;;7.13;100.00
68889;BME280;55930;47.412;8.790;2023-03-14T00:54:58;93316.56;;;6.97;100.00
68889;BME280;55930;47.412;8.790;2023-03-14T00:58:19;93312.28;;;7.00;100.00
68889;BME280;55930;47.412;8.790;2023-03-14T01:01:39;93313.84;;;6.86;100.00
68889;BME280;55930;47.412;8.790;2023-03-14T01:05:00;93326.75;;;6.84;100.00
68889;BME280;55930;47.412;8.790;2023-03-14T01:08:21;93328.00;;;6.88;100.00
68889;BME280;55930;47.412;8.790;2023-03-14T01:11:43;93325.09;;;6.86;100.00
68889;BME280;55930;47.412;8.790;2023-03-14T01:15:06;93336.47;;;6.98;100.00
68889;BME280;55930;47.412;8.790;2023-03-14T01:18:27;93341.63;;;6.87;100.00
68889;BME280;55930;47.412;8.790;2023-03-14T01:21:47;93346.34;;;6.77;100.00
68889;BME280;55930;47.412;8.790;2023-03-14T01:25:16;93339.03;;;6.67;100.00
68889;BME280;55930;47.412;8.790;2023-03-14T01:28:37;93333.94;;;6.63;100.00
68889;BME280;55930;47.412;8.790;2023-03-14T01:31:57;93318.22;;;6.48;100.00
68889;BME280;55930;47.412;8.790;2023-03-14T01:35:18;93312.75;;;6.52;100.00
68889;BME280;55930;47.412;8.790;2023-03-14T01:38:39;93304.59;;;6.50;100.00
68889;BME280;55930;47.412;8.790;2023-03-14T01:42:13;93303.19;;;6.54;100.00
68889;BME280;55930;47.412;8.790;2023-03-14T01:49:31;93289.13;;;6.37;100.00
68889;BME280;55930;47.412;8.790;2023-03-14T01:52:56;93292.81;;;6.45;100.00
68889;BME280;55930;47.412;8.790;2023-03-14T01:56:17;93288.19;;;6.40;100.00
68889;BME280;55930;47.412;8.790;2023-03-14T01:59:40;93279.38;;;6.43;100.00
68889;BME280;55930;47.412;8.790;2023-03-14T02:07:48;93271.97;;;6.47;100.00
68889;BME280;55930;47.412;8.790;2023-03-14T02:11:12;93263.25;;;6.36;100.00
68889;BME280;55930;47.412;8.790;2023-03-14T02:14:36;93253.44;;;6.36;100.00
68889;BME280;55930;47.412;8.790;2023-03-14T02:17:57;93240.47;;;6.33;100.00
68889;BME280;55930;47.412;8.790;2023-03-14T02:24:56;93237.06;;;6.27;100.00
68889;BME280;55930;47.412;8.790;2023-03-14T02:28:20;93228.28;;;6.35;100.00
68889;BME280;55930;47.412;8.790;2023-03-14T02:31:40;93224.94;;;6.35;100.00
68889;BME280;55930;47.412;8.790;2023-03-14T02:35:06;93226.88;;;6.40;100.00
68889;BME280;55930;47.412;8.790;2023-03-14T02:38:51;93214.44;;;6.40;100.00
68889;BME280;55930;47.412;8.790;2023-03-14T02:42:16;93211.41;;;6.47;100.00
68889;BME280;55930;47.412;8.790;2023-03-14T02:45:44;93201.66;;;6.53;100.00
68889;BME280;55930;47.412;8.790;2023-03-14T02:49:12;93204.34;;;6.59;100.00
68889;BME280;55930;47.412;8.790;2023-03-14T02:52:33;93186.34;;;6.58;100.00
68889;BME280;55930;47.412;8.790;2023-03-14T02:55:58;93184.25;;;6.62;100.00
68889;BME280;55930;47.412;8.790;2023-03-14T02:59:21;93177.09;;;6.68;100.00
68889;BME280;55930;47.412;8.790;2023-03-14T03:02:44;93183.75;;;6.63;100.00
68889;BME280;55930;47.412;8.790;2023-03-14T03:06:05;93190.19;;;6.57;100.00
68889;BME280;55930;47.412;8.790;2023-03-14T03:09:25;93175.47;;;6.44;100.00
68889;BME280;55930;47.412;8.790;2023-03-14T03:12:46;93163.81;;;6.31;100.00
68889;BME280;55930;47.412;8.790;2023-03-14T03:16:06;93163.59;;;6.29;100.00
68889;BME280;55930;47.412;8.790;2023-03-14T03:19:27;93157.28;;;6.21;100.00
68889;BME280;55930;47.412;8.790;2023-03-14T03:22:50;93152.97;;;6.23;100.00
68889;BME280;55930;47.412;8.790;2023-03-14T03:26:10;93150.34;;;6.23;100.00
68889;BME280;55930;47.412;8.790;2023-03-14T03:29:31;93152.06;;;6.26;100.00
68889;BME280;55930;47.412;8.790;2023-03-14T03:32:52;93151.56;;;6.22;100.00
68889;BME280;55930;47.412;8.790;2023-03-14T03:36:12;93152.78;;;6.27;100.00
68889;BME280;55930;47.412;8.790;2023-03-14T03:39:32;93142.97;;;6.27;100.00
68889;BME280;55930;47.412;8.790;2023-03-14T03:42:53;93138.91;;;6.26;100.00
68889;BME280;55930;47.412;8.790;2023-03-14T03:46:13;93147.06;;;6.28;100.00
68889;BME280;55930;47.412;8.790;2023-03-14T03:49:34;93154.88;;;6.23;100.00
68889;BME280;55930;47.412;8.790;2023-03-14T03:52:54;93145.56;;;6.22;100.00
68889;BME280;55930;47.412;8.790;2023-03-14T03:56:15;93143.91;;;6.24;100.00
68889;BME280;55930;47.412;8.790;2023-03-14T03:59:35;93140.84;;;6.31;100.00
68889;BME280;55930;47.412;8.790;2023-03-14T04:02:56;93130.31;;;6.31;100.00
68889;BME280;55930;47.412;8.790;2023-03-14T04:06:16;93126.75;;;6.34;100.00
68889;BME280;55930;47.412;8.790;2023-03-14T04:09:37;93125.47;;;6.24;100.00
68889;BME280;55930;47.412;8.790;2023-03-14T04:12:58;93120.19;;;6.24;100.00
68889;BME280;55930;47.412;8.790;2023-03-14T04:16:24;93105.59;;;6.23;100.00
68889;BME280;55930;47.412;8.790;2023-03-14T04:19:44;93110.19;;;6.28;100.00
68889;BME280;55930;47.412;8.790;2023-03-14T04:23:05;93111.34;;;6.22;100.00
68889;BME280;55930;47.412;8.790;2023-03-14T04:26:25;93115.34;;;6.17;100.00
68889;BME280;55930;47.412;8.790;2023-03-14T04:34:03;93102.19;;;6.17;100.00
68889;BME280;55930;47.412;8.790;2023-03-14T04:37:25;93098.25;;;6.07;100.00
68889;BME280;55930;47.412;8.790;2023-03-14T04:40:47;93099.97;;;6.10;100.00
68889;BME280;55930;47.412;8.790;2023-03-14T04:44:07;93096.41;;;6.13;100.00
68889;BME280;55930;47.412;8.790;2023-03-14T04:47:28;93095.91;;;6.09;100.00
68889;BME280;55930;47.412;8.790;2023-03-14T04:50:49;93081.53;;;6.10;100.00
68889;BME280;55930;47.412;8.790;2023-03-14T04:54:09;93077.88;;;6.02;100.00
68889;BME280;55930;47.412;8.790;2023-03-14T04:57:30;93064.47;;;6.00;100.00
68889;BME280;55930;47.412;8.790;2023-03-14T05:00:50;93055.78;;;5.94;100.00
68889;BME280;55930;47.412;8.790;2023-03-14T05:04:11;93040.41;;;5.87;100.00
68889;BME280;55930;47.412;8.790;2023-03-14T05:07:31;93032.00;;;5.83;100.00
68889;BME280;55930;47.412;8.790;2023-03-14T05:10:56;93026.97;;;5.85;100.00
68889;BME280;55930;47.412;8.790;2023-03-14T05:14:16;93028.38;;;5.80;100.00
68889;BME280;55930;47.412;8.790;2023-03-14T05:17:37;93018.19;;;5.88;100.00
68889;BME280;55930;47.412;8.790;2023-03-14T05:21:00;93021.13;;;5.95;100.00
68889;BME280;55930;47.412;8.790;2023-03-14T05:24:21;93009.59;;;5.93;100.00
68889;BME280;55930;47.412;8.790;2023-03-14T05:27:42;93016.06;;;5.92;100.00
68889;BME280;55930;47.412;8.790;2023-03-14T05:31:06;93011.88;;;5.80;100.00
68889;BME280;55930;47.412;8.790;2023-03-14T05:34:26;92995.34;;;5.79;100.00
68889;BME280;55930;47.412;8.790;2023-03-14T05:37:47;92982.94;;;5.80;100.00
68889;BME280;55930;47.412;8.790;2023-03-14T05:41:07;92985.28;;;5.77;100.00
68889;BME280;55930;47.412;8.790;2023-03-14T05:44:28;92981.38;;;5.67;100.00
68889;BME280;55930;47.412;8.790;2023-03-14T05:47:48;92971.16;;;5.75;100.00
68889;BME280;55930;47.412;8.790;2023-03-14T05:51:09;92975.78;;;5.86;100.00
68889;BME280;55930;47.412;8.790;2023-03-14T05:54:29;92970.53;;;5.86;100.00
68889;BME280;55930;47.412;8.790;2023-03-14T05:57:53;92969.97;;;5.76;100.00
68889;BME280;55930;47.412;8.790;2023-03-14T06:01:13;92959.28;;;5.85;100.00
68889;BME280;55930;47.412;8.790;2023-03-14T06:04:34;92947.16;;;5.93;100.00
68889;BME280;55930;47.412;8.790;2023-03-14T06:07:58;92937.66;;;6.01;100.00
68889;BME280;55930;47.412;8.790;2023-03-14T06:11:34;92936.44;;;5.97;100.00
68889;BME280;55930;47.412;8.790;2023-03-14T06:14:56;92948.28;;;5.87;100.00
68889;BME280;55930;47.412;8.790;2023-03-14T06:18:19;92936.00;;;6.04;100.00
68889;BME280;55930;47.412;8.790;2023-03-14T06:21:40;92935.56;;;6.05;100.00
68889;BME280;55930;47.412;8.790;2023-03-14T06:25:02;92929.84;;;6.12;100.00
68889;BME280;55930;47.412;8.790;2023-03-14T06:28:25;92934.25;;;6.32;100.00
68889;BME280;55930;47.412;8.790;2023-03-14T06:31:48;92934.81;;;6.42;100.00
68889;BME280;55930;47.412;8.790;2023-03-14T06:35:15;92933.63;;;6.48;100.00
68889;BME280;55930;47.412;8.790;2023-03-14T06:38:40;92948.53;;;6.57;100.00
68889;BME280;55930;47.412;8.790;2023-03-14T06:42:03;92941.38;;;6.63;100.00
68889;BME280;55930;47.412;8.790;2023-03-14T06:45:23;92946.91;;;6.65;100.00
68889;BME280;55930;47.412;8.790;2023-03-14T06:48:44;92944.53;;;6.73;100.00
68889;BME280;55930;47.412;8.790;2023-03-14T06:52:05;92936.69;;;6.78;100.00
68889;BME280;55930;47.412;8.790;2023-03-14T06:55:25;92942.44;;;6.82;100.00
68889;BME280;55930;47.412;8.790;2023-03-14T06:58:46;92941.00;;;6.87;100.00
68889;BME280;55930;47.412;8.790;2023-03-14T07:02:11;92952.13;;;7.08;100.00
68889;BME280;55930;47.412;8.790;2023-03-14T07:05:32;92979.69;;;7.12;100.00
68889;BME280;55930;47.412;8.790;2023-03-14T07:08:53;92976.63;;;7.36;100.00
68889;BME280;55930;47.412;8.790;2023-03-14T07:12:14;92986.97;;;7.34;100.00
68889;BME280;55930;47.412;8.790;2023-03-14T07:15:34;92992.50;;;7.53;100.00
68889;BME280;55930;47.412;8.790;2023-03-14T07:18:54;92999.75;;;7.69;100.00
68889;BME280;55930;47.412;8.790;2023-03-14T07:22:15;93013.66;;;7.75;100.00
68889;BME280;55930;47.412;8.790;2023-03-14T07:25:35;93013.69;;;7.86;100.00
68889;BME280;55930;47.412;8.790;2023-03-14T07:28:56;93011.13;;;8.36;100.00
68889;BME280;55930;47.412;8.790;2023-03-14T07:32:16;93019.94;;;8.78;100.00
68889;BME280;55930;47.412;8.790;2023-03-14T07:35:37;93017.81;;;8.49;100.00
68889;BME280;55930;47.412;8.790;2023-03-14T07:38:58;93009.84;;;8.71;100.00
68889;BME280;55930;47.412;8.790;2023-03-14T07:42:19;93029.59;;;9.44;97.79
68889;BME280;55930;47.412;8.790;2023-03-14T07:49:35;93024.59;;;15.13;66.37
68889;BME280;55930;47.412;8.790;2023-03-14T07:52:57;93024.66;;;10.77;77.88
68889;BME280;55930;47.412;8.790;2023-03-14T07:56:19;93033.84;;;10.70;81.65
68889;BME280;55930;47.412;8.790;2023-03-14T07:59:40;93031.69;;;10.04;83.34
68889;BME280;55930;47.412;8.790;2023-03-14T08:03:04;93048.81;;;10.03;85.96
68889;BME280;55930;47.412;8.790;2023-03-14T08:06:26;93046.81;;;9.68;87.76
68889;BME280;55930;47.412;8.790;2023-03-14T08:09:47;93044.97;;;9.98;86.19
68889;BME280;55930;47.412;8.790;2023-03-14T08:13:09;93041.78;;;9.58;87.54
68889;BME280;55930;47.412;8.790;2023-03-14T08:16:31;93046.94;;;9.34;86.80
68889;BME280;55930;47.412;8.790;2023-03-14T08:19:52;93049.28;;;9.54;87.08
68889;BME280;55930;47.412;8.790;2023-03-14T08:23:13;93042.97;;;9.00;89.25
68889;BME280;55930;47.412;8.790;2023-03-14T08:26:35;93042.63;;;9.37;89.33
68889;BME280;55930;47.412;8.790;2023-03-14T08:29:55;93042.72;;;9.03;89.17
68889;BME280;55930;47.412;8.790;2023-03-14T08:33:16;93042.81;;;9.44;87.80
68889;BME280;55930;47.412;8.790;2023-03-14T08:36:36;93046.38;;;8.83;87.88
68889;BME280;55930;47.412;8.790;2023-03-14T08:40:01;93052.84;;;8.99;90.65
68889;BME280;55930;47.412;8.790;2023-03-14T08:43:29;93039.19;;;8.73;90.88
68889;BME280;55930;47.412;8.790;2023-03-14T08:46:53;93043.72;;;8.83;92.09
68889;BME280;55930;47.412;8.790;2023-03-14T08:50:14;93047.25;;;9.19;93.53
68889;BME280;55930;47.412;8.790;2023-03-14T08:53:34;93040.88;;;8.59;93.18
68889;BME280;55930;47.412;8.790;2023-03-14T08:56:55;93051.91;;;8.91;93.53
68889;BME280;55930;47.412;8.790;2023-03-14T09:00:17;93040.63;;;8.85;93.70
68889;BME280;55930;47.412;8.790;2023-03-14T09:03:38;93048.53;;;8.79;93.68
68889;BME280;55930;47.412;8.790;2023-03-14T09:06:59;93044.22;;;8.82;95.90
68889;BME280;55930;47.412;8.790;2023-03-14T09:10:20;93058.81;;;9.05;93.74
68889;BME280;55930;47.412;8.790;2023-03-14T09:13:43;93057.78;;;9.36;94.14
68889;BME280;55930;47.412;8.790;2023-03-14T09:17:05;93071.47;;;9.46;93.94
68889;BME280;55930;47.412;8.790;2023-03-14T09:20:26;93069.91;;;8.98;95.25
68889;BME280;55930;47.412;8.790;2023-03-14T09:23:46;93077.84;;;9.09;95.92
68889;BME280;55930;47.412;8.790;2023-03-14T09:27:11;93069.44;;;8.89;97.33
68889;BME280;55930;47.412;8.790;2023-03-14T09:30:31;93075.22;;;8.93;95.99
68889;BME280;55930;47.412;8.790;2023-03-14T09:33:53;93079.19;;;9.38;92.05
68889;BME280;55930;47.412;8.790;2023-03-14T09:37:13;93083.78;;;9.27;91.19
68889;BME280;55930;47.412;8.790;2023-03-14T09:40:36;93075.22;;;9.67;90.27
68889;BME280;55930;47.412;8.790;2023-03-14T09:44:19;93090.38;;;9.72;88.67
68889;BME280;55930;47.412;8.790;2023-03-14T09:47:40;93089.72;;;9.55;90.66
68889;BME280;55930;47.412;8.790;2023-03-14T09:51:05;93092.47;;;9.85;89.75
68889;BME280;55930;47.412;8.790;2023-03-14T09:54:52;93094.66;;;9.86;89.76
68889;BME280;55930;47.412;8.790;2023-03-14T09:58:17;93101.09;;;9.91;93.35
68889;BME280;55930;47.412;8.790;2023-03-14T10:01:39;93094.72;;;9.70;91.91
68889;BME280;55930;47.412;8.790;2023-03-14T10:05:29;93110.47;;;9.34;96.42
68889;BME280;55930;47.412;8.790;2023-03-14T10:08:50;93115.28;;;9.41;98.05
68889;BME280;55930;47.412;8.790;2023-03-14T10:12:13;93120.28;;;9.56;96.55
68889;BME280;55930;47.412;8.790;2023-03-14T10:15:37;93126.81;;;9.38;95.56
68889;BME280;55930;47.412;8.790;2023-03-14T10:19:05;93128.09;;;9.09;96.72
68889;BME280;55930;47.412;8.790;2023-03-14T10:22:30;93132.41;;;8.96;99.08
68889;BME280;55930;47.412;8.790;2023-03-14T10:29:24;93135.75;;;8.35;100.00
68889;BME280;55930;47.412;8.790;2023-03-14T10:32:45;93149.72;;;8.63;100.00
68889;BME280;55930;47.412;8.790;2023-03-14T10:36:17;93157.44;;;8.61;100.00
68889;BME280;55930;47.412;8.790;2023-03-14T10:39:47;93162.19;;;8.35;100.00
68889;BME280;55930;47.412;8.790;2023-03-14T10:43:15;93170.69;;;7.96;100.00
68889;BME280;55930;47.412;8.790;2023-03-14T10:46:39;93167.63;;;8.15;100.00
68889;BME280;55930;47.412;8.790;2023-03-14T10:53:57;93170.19;;;7.92;100.00
68889;BME280;55930;47.412;8.790;2023-03-14T10:57:19;93175.25;;;8.01;100.00
68889;BME280;55930;47.412;8.790;2023-03-14T11:00:43;93190.91;;;8.16;100.00
68889;BME280;55930;47.412;8.790;2023-03-14T11:08:24;93206.13;;;7.73;100.00
68889;BME280;55930;47.412;8.790;2023-03-14T11:11:47;93215.97;;;7.78;100.00
68889;BME280;55930;47.412;8.790;2023-03-14T11:15:24;93235.16;;;7.73;100.00
68889;BME280;55930;47.412;8.790;2023-03-14T11:23:06;93241.91;;;7.43;100.00
68889;BME280;55930;47.412;8.790;2023-03-14T11:30:21;93274.81;;;7.16;100.00
68889;BME280;55930;47.412;8.790;2023-03-14T11:34:01;93280.75;;;7.11;100.00
68889;BME280;55930;47.412;8.790;2023-03-14T11:37:34;93284.91;;;6.91;100.00
68889;BME280;55930;47.412;8.790;2023-03-14T11:40:57;93299.03;;;6.68;100.00
68889;BME280;55930;47.412;8.790;2023-03-14T11:44:38;93295.09;;;6.58;100.00
68889;BME280;55930;47.412;8.790;2023-03-14T11:48:37;93325.88;;;6.46;100.00
68889;BME280;55930;47.412;8.790;2023-03-14T11:52:09;93320.91;;;6.34;100.00
68889;BME280;55930;47.412;8.790;2023-03-14T11:55:35;93321.84;;;6.51;100.00
68889;BME280;55930;47.412;8.790;2023-03-14T11:59:32;93324.22;;;6.29;100.00
68889;BME280;55930;47.412;8.790;2023-03-14T12:06:32;93350.59;;;6.14;100.00
68889;BME280;55930;47.412;8.790;2023-03-14T12:09:55;93354.16;;;6.11;100.00
68889;BME280;55930;47.412;8.790;2023-03-14T12:13:17;93365.91;;;5.95;100.00
68889;BME280;55930;47.412;8.790;2023-03-14T12:16:38;93363.94;;;6.10;100.00
68889;BME280;55930;47.412;8.790;2023-03-14T12:20:23;93379.34;;;5.97;100.00
68889;BME280;55930;47.412;8.790;2023-03-14T12:23:52;93392.09;;;6.04;100.00
68889;BME280;55930;47.412;8.790;2023-03-14T12:34:53;93409.72;;;6.13;100.00
68889;BME280;55930;47.412;8.790;2023-03-14T12:49:31;93449.16;;;6.63;100.00
68889;BME280;55930;47.412;8.790;2023-03-14T12:56:24;93454.78;;;6.70;100.00
68889;BME280;55930;47.412;8.790;2023-03-14T13:00:11;93465.47;;;7.02;100.00
68889;BME280;55930;47.412;8.790;2023-03-14T13:03:50;93485.22;;;7.12;100.00
68889;BME280;55930;47.412;8.790;2023-03-14T13:07:35;93503.47;;;6.75;100.00
68889;BME280;55930;47.412;8.790;2023-03-14T13:10:59;93503.53;;;6.45;100.00
68889;BME280;55930;47.412;8.790;2023-03-14T13:14:22;93524.69;;;6.51;100.00
68889;BME280;55930;47.412;8.790;2023-03-14T13:17:44;93529.81;;;6.10;100.00
68889;BME280;55930;47.412;8.790;2023-03-14T13:21:17;93543.50;;;6.00;100.00
68889;BME280;55930;47.412;8.790;2023-03-14T13:24:42;93554.66;;;5.95;100.00
68889;BME280;55930;47.412;8.790;2023-03-14T13:28:03;93562.56;;;5.95;100.00
68889;BME280;55930;47.412;8.790;2023-03-14T13:31:24;93553.50;;;6.25;100.00
68889;BME280;55930;47.412;8.790;2023-03-14T13:34:46;93554.50;;;6.13;100.00
68889;BME280;55930;47.412;8.790;2023-03-14T13:38:24;93572.66;;;5.96;100.00
68889;BME280;55930;47.412;8.790;2023-03-14T13:41:46;93586.28;;;7.03;100.00
68889;BME280;55930;47.412;8.790;2023-03-14T13:45:12;93575.91;;;8.47;100.00
68889;BME280;55930;47.412;8.790;2023-03-14T13:48:39;93589.16;;;9.75;92.83
68889;BME280;55930;47.412;8.790;2023-03-14T13:52:04;93589.50;;;8.97;95.39
68889;BME280;55930;47.412;8.790;2023-03-14T13:55:41;93618.00;;;8.04;96.83
68889;BME280;55930;47.412;8.790;2023-03-14T13:59:01;93601.78;;;7.71;99.07
68889;BME280;55930;47.412;8.790;2023-03-14T14:02:24;93586.47;;;8.78;94.78
68889;BME280;55930;47.412;8.790;2023-03-14T14:05:45;93594.63;;;8.23;93.83
68889;BME280;55930;47.412;8.790;2023-03-14T14:09:20;93595.28;;;7.92;93.46
68889;BME280;55930;47.412;8.790;2023-03-14T14:12:57;93607.66;;;7.40;96.65
68889;BME280;55930;47.412;8.790;2023-03-14T14:16:23;93614.09;;;7.04;96.61
68889;BME280;55930;47.412;8.790;2023-03-14T14:19:46;93611.53;;;7.24;97.58
68889;BME280;55930;47.412;8.790;2023-03-14T14:23:22;93615.63;;;7.11;98.28
68889;BME280;55930;47.412;8.790;2023-03-14T14:27:13;93626.16;;;7.25;96.63
68889;BME280;55930;47.412;8.790;2023-03-14T14:31:22;93620.63;;;7.23;99.28
68889;BME280;55930;47.412;8.790;2023-03-14T14:38:16;93633.38;;;6.96;98.67
68889;BME280;55930;47.412;8.790;2023-03-14T14:41:42;93639.44;;;6.52;99.21
68889;BME280;55930;47.412;8.790;2023-03-14T14:45:18;93643.53;;;6.68;99.32
68889;BME280;55930;47.412;8.790;2023-03-14T14:48:41;93660.53;;;7.66;96.16
68889;BME280;55930;47.412;8.790;2023-03-14T14:52:15;93658.88;;;10.03;82.53
68889;BME280;55930;47.412;8.790;2023-03-14T14:55:43;93665.78;;;10.43;83.74
68889;BME280;55930;47.412;8.790;2023-03-14T14:59:07;93653.81;;;9.09;86.00
68889;BME280;55930;47.412;8.790;2023-03-14T15:02:40;93672.97;;;8.47;86.66
68889;BME280;55930;47.412;8.790;2023-03-14T15:06:22;93673.28;;;9.11;87.87
68889;BME280;55930;47.412;8.790;2023-03-14T15:09:44;93684.88;;;9.19;83.74
68889;BME280;55930;47.412;8.790;2023-03-14T15:13:04;93681.31;;;8.65;81.42
68889;BME280;55930;47.412;8.790;2023-03-14T15:16:29;93692.19;;;8.47;82.52
68889;BME280;55930;47.412;8.790;2023-03-14T15:19:51;93693.84;;;8.24;82.58
68889;BME280;55930;47.412;8.790;2023-03-14T15:23:14;93694.97;;;8.84;79.63
68889;BME280;55930;47.412;8.790;2023-03-14T15:26:38;93684.16;;;8.88;79.44
68889;BME280;55930;47.412;8.790;2023-03-14T15:29:58;93696.56;;;9.76;75.59
68889;BME280;55930;47.412;8.790;2023-03-14T15:33:27;93679.53;;;9.08;74.80
68889;BME280;55930;47.412;8.790;2023-03-14T15:37:13;93684.22;;;8.67;73.98
68889;BME280;55930;47.412;8.790;2023-03-14T15:40:55;93687.44;;;8.31;72.84
68889;BME280;55930;47.412;8.790;2023-03-14T15:44:18;93678.41;;;8.17;72.70
68889;BME280;55930;47.412;8.790;2023-03-14T15:47:38;93674.28;;;7.55;73.76
68889;BME280;55930;47.412;8.790;2023-03-14T15:51:00;93663.00;;;7.75;75.12
68889;BME280;55930;47.412;8.790;2023-03-14T15:54:21;93670.06;;;7.28;76.31
68889;BME280;55930;47.412;8.790;2023-03-14T15:57:48;93677.00;;;7.11;77.89
68889;BME280;55930;47.412;8.790;2023-03-14T16:01:09;93677.94;;;7.08;79.35
68889;BME280;55930;47.412;8.790;2023-03-14T16:04:35;93696.41;;;7.08;82.80
68889;BME280;55930;47.412;8.790;2023-03-14T16:07:55;93719.75;;;6.71;86.17
68889;BME280;55930;47.412;8.790;2023-03-14T16:11:18;93729.09;;;6.19;95.43
68889;BME280;55930;47.412;8.790;2023-03-14T16:14:42;93726.88;;;5.70;100.00
68889;BME280;55930;47.412;8.790;2023-03-14T16:18:35;93733.84;;;5.58;100.00
68889;BME280;55930;47.412;8.790;2023-03-14T16:22:21;93719.94;;;5.25;100.00
68889;BME280;55930;47.412;8.790;2023-03-14T16:25:44;93723.09;;;4.87;100.00
68889;BME280;55930;47.412;8.790;2023-03-14T16:32:52;93728.91;;;5.09;100.00
68889;BME280;55930;47.412;8.790;2023-03-14T16:36:13;93724.06;;;5.17;100.00
68889;BME280;55930;47.412;8.790;2023-03-14T16:39:33;93722.22;;;4.90;100.00
68889;BME280;55930;47.412;8.790;2023-03-14T16:42:54;93724.84;;;4.99;100.00
68889;BME280;55930;47.412;8.790;2023-03-14T16:46:15;93729.69;;;4.82;100.00
68889;BME280;55930;47.412;8.790;2023-03-14T16:49:39;93731.47;;;4.76;100.00
68889;BME280;55930;47.412;8.790;2023-03-14T16:52:59;93740.16;;;5.00;100.00
68889;BME280;55930;47.412;8.790;2023-03-14T16:56:21;93741.06;;;4.88;100.00
68889;BME280;55930;47.412;8.790;2023-03-14T16:59:44;93746.69;;;5.14;100.00
68889;BME280;55930;47.412;8.790;2023-03-14T17:03:04;93745.22;;;5.13;100.00
68889;BME280;55930;47.412;8.790;2023-03-14T17:06:26;93753.84;;;5.14;100.00
68889;BME280;55930;47.412;8.790;2023-03-14T17:09:49;93766.56;;;5.06;100.00
68889;BME280;55930;47.412;8.790;2023-03-14T17:13:11;93764.13;;;5.03;100.00
68889;BME280;55930;47.412;8.790;2023-03-14T17:16:31;93767.03;;;4.95;100.00
68889;BME280;55930;47.412;8.790;2023-03-14T17:19:52;93773.19;;;4.92;100.00
68889;BME280;55930;47.412;8.790;2023-03-14T17:23:12;93751.28;;;4.86;100.00
68889;BME280;55930;47.412;8.790;2023-03-14T17:26:33;93761.09;;;4.68;100.00
68889;BME280;55930;47.412;8.790;2023-03-14T17:29:53;93763.13;;;4.73;100.00
68889;BME280;55930;47.412;8.790;2023-03-14T17:33:14;93777.28;;;4.57;100.00
68889;BME280;55930;47.412;8.790;2023-03-14T17:36:34;93793.03;;;4.48;100.00
68889;BME280;55930;47.412;8.790;2023-03-14T17:39:55;93790.72;;;4.50;100.00
68889;BME280;55930;47.412;8.790;2023-03-14T17:43:15;93799.63;;;4.61;100.00
68889;BME280;55930;47.412;8.790;2023-03-14T17:46:41;93822.22;;;4.41;100.00
68889;BME280;55930;47.412;8.790;2023-03-14T17:50:05;93828.50;;;4.43;100.00
68889;BME280;55930;47.412;8.790;2023-03-14T17:53:28;93841.75;;;4.49;100.00
68889;BME280;55930;47.412;8.790;2023-03-14T17:56:48;93846.41;;;4.36;100.00
68889;BME280;55930;47.412;8.790;2023-03-14T18:00:09;93854.72;;;4.34;100.00
68889;BME280;55930;47.412;8.790;2023-03-14T18:03:30;93866.72;;;4.44;100.00
68889;BME280;55930;47.412;8.790;2023-03-14T18:06:51;93862.63;;;4.43;100.00
68889;BME280;55930;47.412;8.790;2023-03-14T18:10:11;93862.16;;;4.27;100.00
68889;BME280;55930;47.412;8.790;2023-03-14T18:13:34;93871.94;;;4.35;100.00
68889;BME280;55930;47.412;8.790;2023-03-14T18:16:56;93869.91;;;4.39;100.00
68889;BME280;55930;47.412;8.790;2023-03-14T18:20:17;93878.06;;;4.32;100.00
68889;BME280;55930;47.412;8.790;2023-03-14T18:23:37;93873.06;;;4.25;100.00
68889;BME280;55930;47.412;8.790;2023-03-14T18:26:58;93878.34;;;4.34;100.00
68889;BME280;55930;47.412;8.790;2023-03-14T18:30:19;93880.09;;;4.28;100.00
68889;BME280;55930;47.412;8.790;2023-03-14T18:33:39;93888.97;;;4.21;100.00
68889;BME280;55930;47.412;8.790;2023-03-14T18:37:01;93901.69;;;4.32;100.00
68889;BME280;55930;47.412;8.790;2023-03-14T18:40:24;93915.00;;;4.38;100.00
68889;BME280;55930;47.412;8.790;2023-03-14T18:43:47;93922.50;;;4.17;100.00
68889;BME280;55930;47.412;8.790;2023-03-14T18:47:08;93932.25;;;4.17;100.00
68889;BME280;55930;47.412;8.790;2023-03-14T18:50:28;93933.63;;;3.91;100.00
68889;BME280;55930;47.412;8.790;2023-03-14T18:53:49;93939.81;;;3.75;100.00
68889;BME280;55930;47.412;8.790;2023-03-14T18:57:09;93940.09;;;3.77;100.00
68889;BME280;55930;47.412;8.790;2023-03-14T19:00:30;93937.88;;;3.75;100.00
68889;BME280;55930;47.412;8.790;2023-03-14T19:03:50;93950.84;;;3.70;100.00
68889;BME280;55930;47.412;8.790;2023-03-14T19:07:11;93952.13;;;3.65;100.00
68889;BME280;55930;47.412;8.790;2023-03-14T19:10:33;93963.03;;;3.64;100.00
68889;BME280;55930;47.412;8.790;2023-03-14T19:13:53;93968.72;;;3.62;100.00
68889;BME280;55930;47.412;8.790;2023-03-14T19:17:14;93972.25;;;3.46;100.00